Time;durP1;ratioP1;P1;durP2;ratioP2;P2;SDS_P1;SDS_P2;PMS_P1;PMS_P2;Temp;Humidity;BMP_temperature;BMP_pressure;BME280_temperature;BME280_humidity;BME280_pressure;Samples;Min_cycle;Max_cycle;Signal;HPM_P1;HPM_P2
2021/01/15 00:00:05;;;;;;;4.47;2.03;;;3.10;87.20;;;;;;5033771;28;20068;-79
2021/01/15 00:02:31;;;;;;;6.30;2.33;;;3.10;87.10;;;;;;5015723;28;20017;-79
2021/01/15 00:04:57;;;;;;;6.65;2.78;;;3.10;87.10;;;;;;5033103;28;20017;-79
2021/01/15 00:07:22;;;;;;;9.38;2.67;;;3.10;87.10;;;;;;5033775;28;20159;-79
2021/01/15 00:09:48;;;;;;;5.18;2.75;;;3.10;87.00;;;;;;5014949;28;20026;-78
2021/01/15 00:12:13;;;;;;;5.35;1.95;;;3.20;87.00;;;;;;5033063;28;20017;-79
2021/01/15 00:14:39;;;;;;;5.50;2.45;;;3.20;86.90;;;;;;5014747;28;20018;-79
2021/01/15 00:17:05;;;;;;;3.90;2.28;;;3.20;86.70;;;;;;5014605;28;20013;-80
2021/01/15 00:19:30;;;;;;;5.15;2.20;;;3.30;86.70;;;;;;5015385;28;20025;-79
2021/01/15 00:21:56;;;;;;;4.70;1.95;;;3.30;86.50;;;;;;5032837;28;20519;-79
2021/01/15 00:24:22;;;;;;;6.82;2.20;;;3.30;86.30;;;;;;5015433;28;20021;-78
2021/01/15 00:26:48;;;;;;;7.57;3.00;;;3.40;86.20;;;;;;5014968;28;20340;-78
2021/01/15 00:29:16;;;;;;;5.20;2.60;;;3.40;86.10;;;;;;5033660;28;20089;-78
2021/01/15 00:31:44;;;;;;;4.68;1.83;;;3.40;86.10;;;;;;5015349;28;20025;-79
2021/01/15 00:34:12;;;;;;;4.93;1.90;;;3.40;86.00;;;;;;5015890;28;20048;-78
2021/01/15 00:36:39;;;;;;;4.50;2.17;;;3.40;85.90;;;;;;5033377;28;20385;-85
2021/01/15 00:39:08;;;;;;;6.07;2.88;;;3.40;85.90;;;;;;5015683;28;20033;-78
2021/01/15 00:41:35;;;;;;;5.85;2.33;;;3.40;85.80;;;;;;5033571;28;20482;-78
2021/01/15 00:44:01;;;;;;;4.35;2.38;;;3.40;85.70;;;;;;5033081;28;20130;-78
2021/01/15 00:46:31;;;;;;;6.13;2.78;;;3.50;85.70;;;;;;5033457;28;20018;-78
2021/01/15 00:49:04;;;;;;;6.35;1.92;;;3.50;85.60;;;;;;5015301;28;20446;-78
2021/01/15 00:51:30;;;;;;;3.92;2.22;;;3.50;85.50;;;;;;5033556;28;20104;-78
2021/01/15 00:53:57;;;;;;;4.70;1.88;;;3.60;85.40;;;;;;5015112;28;20022;-78
2021/01/15 00:56:22;;;;;;;7.57;2.13;;;3.60;85.20;;;;;;5015695;28;20018;-78
2021/01/15 00:58:49;;;;;;;5.40;2.85;;;3.60;85.10;;;;;;5032268;28;20386;-79
2021/01/15 01:01:16;;;;;;;3.47;1.80;;;3.60;85.10;;;;;;5033122;28;20017;-78
2021/01/15 01:03:46;;;;;;;4.10;1.95;;;3.60;85.00;;;;;;5032575;28;20028;-79
2021/01/15 01:06:21;;;;;;;5.82;2.58;;;3.70;84.90;;;;;;5033038;28;20052;-78
2021/01/15 01:08:48;;;;;;;4.57;2.20;;;3.70;84.80;;;;;;5032343;28;20021;-78
2021/01/15 01:11:22;;;;;;;4.90;2.13;;;3.70;84.80;;;;;;5032853;28;20339;-78
2021/01/15 01:13:50;;;;;;;4.95;1.88;;;3.70;84.70;;;;;;5032277;28;20344;-79
2021/01/15 01:16:17;;;;;;;3.72;2.15;;;3.70;84.70;;;;;;5015056;28;20022;-78
2021/01/15 01:21:33;;;;;;;5.55;2.55;;;3.80;84.70;;;;;;5479189;23;21311;-77
2021/01/15 01:23:59;;;;;;;5.00;1.80;;;3.80;85.10;;;;;;5007095;28;20066;-78
2021/01/15 01:26:25;;;;;;;5.57;2.28;;;3.80;84.50;;;;;;5008206;28;20092;-78
2021/01/15 01:28:51;;;;;;;6.10;2.78;;;3.80;84.50;;;;;;4991743;28;20030;-78
2021/01/15 01:31:18;;;;;;;4.00;1.73;;;3.80;84.50;;;;;;4992852;28;20101;-77
2021/01/15 01:33:44;;;;;;;6.25;2.75;;;3.80;84.50;;;;;;4992718;28;20014;-80
2021/01/15 01:36:11;;;;;;;2.25;1.80;;;3.80;84.50;;;;;;4993366;28;20033;-79
2021/01/15 01:38:38;;;;;;;6.78;2.63;;;3.80;84.40;;;;;;4991647;28;20459;-79
2021/01/15 01:41:04;;;;;;;5.57;2.03;;;3.80;84.50;;;;;;4991326;28;20355;-79
2021/01/15 01:43:30;;;;;;;5.88;1.90;;;3.80;84.50;;;;;;4992699;28;20023;-79
2021/01/15 01:46:02;;;;;;;5.75;2.30;;;3.80;85.10;;;;;;4992139;28;20033;-79
2021/01/15 01:48:28;;;;;;;5.47;2.33;;;3.80;84.40;;;;;;5008318;28;20125;-78
2021/01/15 01:50:54;;;;;;;9.80;2.83;;;3.80;84.40;;;;;;4991282;28;20368;-79
2021/01/15 01:53:27;;;;;;;7.53;2.20;;;3.80;84.50;;;;;;4992874;28;20172;-78
2021/01/15 01:55:53;;;;;;;5.68;2.67;;;3.90;84.50;;;;;;4992349;28;20033;-79
2021/01/15 01:58:19;;;;;;;5.10;2.22;;;3.80;84.40;;;;;;4992516;28;20022;-79
2021/01/15 02:00:48;;;;;;;7.25;2.50;;;3.80;84.50;;;;;;5007379;28;20041;-82
2021/01/15 02:03:16;;;;;;;5.43;2.20;;;3.90;84.50;;;;;;4992549;28;20027;-79
2021/01/15 02:05:42;;;;;;;9.02;2.97;;;3.80;84.50;;;;;;4992736;28;20026;-83
2021/01/15 02:08:08;;;;;;;5.28;2.28;;;3.90;84.50;;;;;;5007928;28;20030;-79
2021/01/15 02:10:36;;;;;;;6.68;2.33;;;3.80;84.40;;;;;;5007794;28;20023;-79
2021/01/15 02:13:22;;;;;;;4.95;2.05;;;3.90;84.50;;;;;;4991038;28;20034;-79
2021/01/15 02:15:58;;;;;;;5.85;2.45;;;3.90;84.40;;;;;;4999833;28;20045;-80
2021/01/15 02:18:35;;;;;;;7.40;3.15;;;3.90;84.40;;;;;;4993043;28;20029;-79
2021/01/15 02:21:22;;;;;;;7.07;2.25;;;3.90;84.40;;;;;;4990933;28;20454;-79
2021/01/15 02:23:49;;;;;;;4.97;2.20;;;3.90;84.40;;;;;;4990729;28;20051;-80
2021/01/15 02:26:53;;;;;;;6.10;2.78;;;3.90;84.50;;;;;;4992734;28;20061;-79
2021/01/15 02:29:23;;;;;;;4.95;2.05;;;3.90;84.40;;;;;;4992792;28;20129;-79
2021/01/15 02:32:18;;;;;;;9.68;3.22;;;3.90;84.50;;;;;;4992149;28;20037;-80
2021/01/15 02:35:10;;;;;;;6.45;2.83;;;3.90;84.30;;;;;;4987875;28;20041;-80
2021/01/15 02:38:11;;;;;;;5.35;2.00;;;3.90;84.30;;;;;;4992829;28;20097;-79
2021/01/15 02:41:01;;;;;;;5.10;2.22;;;3.90;84.40;;;;;;5008887;28;20042;-79
2021/01/15 02:43:27;;;;;;;5.80;2.58;;;3.80;84.40;;;;;;4994921;28;20022;-79
2021/01/15 02:45:56;;;;;;;8.23;2.70;;;3.80;84.40;;;;;;5010852;28;20026;-79
2021/01/15 02:48:25;;;;;;;6.32;2.67;;;3.80;84.40;;;;;;4994949;28;20101;-79
2021/01/15 02:50:51;;;;;;;4.88;2.13;;;3.90;84.40;;;;;;4995731;28;20026;-80
2021/01/15 02:53:17;;;;;;;5.80;1.88;;;3.80;84.30;;;;;;4995821;28;20033;-79
2021/01/15 02:55:44;;;;;;;6.57;2.80;;;3.90;84.40;;;;;;4995981;28;20085;-78
2021/01/15 02:58:12;;;;;;;6.93;2.33;;;3.90;84.40;;;;;;4995673;28;20030;-79
2021/01/15 03:00:41;;;;;;;6.47;2.30;;;3.90;84.30;;;;;;4995730;28;20046;-79
2021/01/15 03:03:28;;;;;;;5.50;2.55;;;3.80;84.30;;;;;;4995135;28;20531;-79
2021/01/15 03:06:04;;;;;;;7.22;3.13;;;3.80;84.30;;;;;;5010216;28;20436;-79
2021/01/15 03:08:30;;;;;;;6.22;2.58;;;3.80;84.40;;;;;;4995815;28;20456;-78
2021/01/15 03:11:00;;;;;;;7.85;2.70;;;3.80;84.40;;;;;;4993968;28;20023;-80
2021/01/15 03:13:28;;;;;;;5.20;2.30;;;3.90;84.40;;;;;;4993950;28;20109;-79
2021/01/15 03:15:58;;;;;;;4.85;2.40;;;3.80;84.30;;;;;;5009490;28;20030;-79
2021/01/15 03:18:25;;;;;;;6.65;2.67;;;3.80;84.20;;;;;;4995926;28;20026;-78
2021/01/15 03:20:51;;;;;;;6.60;2.35;;;3.80;84.40;;;;;;4994664;28;20057;-82
2021/01/15 03:23:17;;;;;;;4.60;1.80;;;3.80;84.40;;;;;;4994097;28;20406;-78
2021/01/15 03:25:42;;;;;;;5.80;3.03;;;3.80;84.40;;;;;;5010851;28;20033;-78
2021/01/15 03:28:08;;;;;;;6.63;2.22;;;3.80;84.40;;;;;;4993770;28;20026;-79
2021/01/15 03:30:34;;;;;;;5.18;2.53;;;3.80;84.40;;;;;;4993982;28;20077;-79
2021/01/15 03:33:03;;;;;;;6.88;2.65;;;3.90;84.40;;;;;;4994908;28;20018;-79
2021/01/15 03:35:30;;;;;;;3.30;2.00;;;3.90;84.30;;;;;;4995270;28;20137;-78
2021/01/15 03:38:04;;;;;;;7.03;2.50;;;3.90;84.30;;;;;;4994637;28;20030;-78
2021/01/15 03:40:35;;;;;;;5.63;2.40;;;3.90;84.40;;;;;;5010255;28;20383;-78
2021/01/15 03:43:09;;;;;;;6.60;2.45;;;3.90;84.40;;;;;;4994618;28;20052;-78
2021/01/15 03:45:34;;;;;;;6.45;2.25;;;3.80;84.20;;;;;;5010360;28;20030;-79
2021/01/15 03:48:00;;;;;;;6.13;2.42;;;3.80;84.30;;;;;;5009359;28;20030;-78
2021/01/15 03:50:26;;;;;;;6.65;2.72;;;3.80;84.40;;;;;;4993919;28;20053;-78
2021/01/15 03:52:51;;;;;;;6.10;2.50;;;3.80;84.40;;;;;;4994784;28;20037;-83
2021/01/15 03:55:17;;;;;;;5.07;2.42;;;3.90;84.50;;;;;;4995019;28;20030;-78
2021/01/15 03:57:44;;;;;;;7.97;2.83;;;3.90;84.50;;;;;;5010367;28;20025;-79
2021/01/15 04:00:11;;;;;;;6.05;2.40;;;3.90;84.50;;;;;;4993650;28;20031;-80
2021/01/15 04:02:37;;;;;;;6.63;2.75;;;3.90;84.50;;;;;;5009924;28;20364;-78
2021/01/15 04:05:03;;;;;;;6.35;2.55;;;3.80;84.50;;;;;;4995303;28;20023;-78
2021/01/15 04:07:29;;;;;;;7.57;2.85;;;3.80;84.60;;;;;;4995163;28;20109;-78
2021/01/15 04:09:56;;;;;;;7.00;2.38;;;3.80;84.70;;;;;;4993750;28;20074;-78
2021/01/15 04:12:22;;;;;;;6.70;2.65;;;3.80;84.70;;;;;;4994452;28;20101;-78
2021/01/15 04:14:47;;;;;;;7.50;3.10;;;3.80;84.70;;;;;;4994136;28;20097;-78
2021/01/15 04:17:13;;;;;;;8.82;3.53;;;3.80;84.50;;;;;;4992408;28;20790;-78
2021/01/15 04:19:39;;;;;;;8.05;3.13;;;3.80;84.60;;;;;;5009431;28;20034;-77
2021/01/15 04:22:05;;;;;;;7.43;2.70;;;3.80;84.70;;;;;;4993828;28;20051;-78
2021/01/15 04:24:30;;;;;;;7.65;3.13;;;3.80;84.70;;;;;;5009269;28;20028;-78
2021/01/15 04:26:57;;;;;;;7.78;2.67;;;3.80;84.70;;;;;;5008674;28;20452;-79
2021/01/15 04:29:24;;;;;;;6.63;3.42;;;3.80;84.70;;;;;;5009584;28;20502;-79
2021/01/15 04:31:50;;;;;;;5.68;2.70;;;3.80;84.70;;;;;;4993232;28;20045;-81
2021/01/15 04:34:16;;;;;;;7.28;2.42;;;3.80;84.70;;;;;;4993844;28;20030;-78
2021/01/15 04:36:42;;;;;;;4.40;2.40;;;3.80;84.70;;;;;;4993051;28;20371;-78
2021/01/15 04:39:09;;;;;;;8.27;2.53;;;3.80;84.60;;;;;;5008708;28;20026;-78
2021/01/15 04:41:35;;;;;;;5.40;2.35;;;3.90;84.70;;;;;;4993990;28;20022;-79
2021/01/15 04:44:02;;;;;;;6.50;2.70;;;3.80;84.70;;;;;;4993193;28;20031;-78
2021/01/15 04:46:28;;;;;;;7.70;2.85;;;3.80;84.60;;;;;;4993817;28;20030;-80
2021/01/15 04:48:56;;;;;;;5.07;2.10;;;3.90;84.70;;;;;;5008794;28;20139;-81
2021/01/15 04:51:24;;;;;;;6.50;2.75;;;3.90;84.70;;;;;;4994286;28;20033;-78
2021/01/15 04:54:01;;;;;;;10.18;2.65;;;3.80;84.70;;;;;;5009033;28;20026;-79
2021/01/15 04:56:40;;;;;;;9.52;4.13;;;3.80;84.70;;;;;;5025286;28;20026;-78
2021/01/15 04:59:12;;;;;;;7.57;3.08;;;3.80;84.80;;;;;;5011865;28;20034;-78
2021/01/15 05:01:45;;;;;;;5.53;2.67;;;3.70;84.80;;;;;;5012032;28;20040;-78
2021/01/15 05:04:18;;;;;;;4.85;2.50;;;3.80;84.80;;;;;;5011756;28;20160;-78
2021/01/15 05:06:45;;;;;;;5.78;2.60;;;3.80;84.80;;;;;;5020330;28;20045;-78
2021/01/15 05:09:12;;;;;;;4.72;2.50;;;3.80;84.80;;;;;;5026634;28;20033;-78
2021/01/15 05:11:38;;;;;;;6.65;3.38;;;3.80;84.80;;;;;;5027149;28;20026;-78
2021/01/15 05:14:15;;;;;;;7.15;2.38;;;3.80;84.80;;;;;;5025031;28;20029;-79
2021/01/15 05:16:43;;;;;;;6.20;1.95;;;3.80;85.40;;;;;;5016842;28;20168;-78
2021/01/15 05:19:09;;;;;;;5.85;2.35;;;3.80;84.80;;;;;;5011909;28;20061;-78
2021/01/15 05:21:36;;;;;;;6.90;3.17;;;3.80;84.80;;;;;;5011853;28;20069;-78
2021/01/15 05:24:04;;;;;;;8.07;3.08;;;3.80;84.70;;;;;;5012776;28;20095;-79
2021/01/15 05:26:36;;;;;;;5.38;2.40;;;3.90;84.80;;;;;;5008429;28;20074;-78
2021/01/15 05:29:03;;;;;;;10.77;3.60;;;3.80;84.70;;;;;;4993020;28;20022;-79
2021/01/15 05:31:56;;;;;;;8.40;2.80;;;3.80;84.70;;;;;;5010650;28;20026;-78
2021/01/15 05:34:24;;;;;;;7.10;3.10;;;3.90;84.80;;;;;;5012905;28;20152;-79
2021/01/15 05:36:50;;;;;;;11.98;3.00;;;3.90;84.80;;;;;;5003462;28;20031;-79
2021/01/15 05:39:24;;;;;;;8.77;2.97;;;3.90;84.80;;;;;;5016686;28;20096;-79
2021/01/15 05:41:58;;;;;;;6.22;2.80;;;3.90;84.80;;;;;;5011958;28;20057;-79
2021/01/15 05:44:26;;;;;;;7.07;3.17;;;3.90;84.80;;;;;;5013200;28;20482;-79
2021/01/15 05:46:52;;;;;;;6.93;2.88;;;3.90;84.80;;;;;;5012785;28;20034;-80
2021/01/15 05:49:18;;;;;;;8.20;2.80;;;3.90;84.80;;;;;;5012788;28;20025;-79
2021/01/15 05:51:43;;;;;;;6.53;2.70;;;3.90;84.80;;;;;;5011558;28;20105;-79
2021/01/15 05:54:10;;;;;;;7.43;3.50;;;3.90;84.80;;;;;;5011539;28;20033;-80
2021/01/15 05:56:46;;;;;;;8.38;2.85;;;3.90;84.80;;;;;;5015561;28;20033;-77
2021/01/15 05:59:14;;;;;;;5.38;2.47;;;3.90;84.80;;;;;;5006451;28;20463;-76
2021/01/15 06:01:46;;;;;;;8.68;3.10;;;3.90;84.80;;;;;;5009569;28;20532;-77
2021/01/15 06:04:14;;;;;;;7.93;2.90;;;3.90;84.90;;;;;;5008476;28;20037;-77
2021/01/15 06:06:41;;;;;;;7.32;2.83;;;3.90;84.90;;;;;;5009473;28;20398;-78
2021/01/15 06:09:09;;;;;;;6.60;3.03;;;3.90;84.90;;;;;;5007395;28;20554;-75
2021/01/15 06:11:37;;;;;;;7.70;2.78;;;3.90;84.90;;;;;;5008920;28;20467;-76
2021/01/15 06:14:23;;;;;;;8.57;3.17;;;3.90;84.90;;;;;;5008853;28;20036;-77
2021/01/15 06:17:09;;;;;;;6.78;3.17;;;3.90;84.90;;;;;;5011370;28;20037;-77
2021/01/15 06:19:42;;;;;;;9.80;3.40;;;3.90;84.90;;;;;;5013131;28;20490;-77
2021/01/15 06:22:25;;;;;;;7.05;3.28;;;3.90;84.90;;;;;;5012821;28;20054;-77
2021/01/15 06:25:04;;;;;;;7.40;3.10;;;3.90;84.90;;;;;;5013037;28;20036;-76
2021/01/15 06:27:38;;;;;;;8.00;2.90;;;4.00;85.00;;;;;;5013795;28;20026;-76
2021/01/15 06:30:15;;;;;;;7.70;3.65;;;3.90;85.00;;;;;;5013012;28;20113;-77
2021/01/15 06:32:42;;;;;;;9.13;3.45;;;3.90;85.00;;;;;;5013233;28;20022;-77
2021/01/15 06:35:22;;;;;;;7.72;3.15;;;3.90;85.10;;;;;;5014259;28;20378;-76
2021/01/15 06:38:15;;;;;;;7.07;3.10;;;3.90;85.20;;;;;;5016385;28;20029;-77
2021/01/15 06:40:45;;;;;;;5.88;2.53;;;3.90;85.10;;;;;;5016559;28;20037;-77
2021/01/15 06:43:19;;;;;;;9.63;4.22;;;3.90;85.00;;;;;;5016839;28;20025;-80
2021/01/15 06:45:46;;;;;;;14.02;3.58;;;4.00;85.10;;;;;;5015037;28;20029;-78
2021/01/15 06:48:17;;;;;;;9.10;2.97;;;4.00;85.10;;;;;;5015499;28;20030;-78
2021/01/15 06:50:45;;;;;;;8.38;2.72;;;4.00;85.10;;;;;;5014666;28;20463;-77
2021/01/15 06:53:17;;;;;;;7.63;2.65;;;4.00;85.10;;;;;;5015318;28;20028;-77
2021/01/15 06:55:46;;;;;;;6.45;3.05;;;4.00;85.10;;;;;;5014524;28;20033;-78
2021/01/15 06:58:21;;;;;;;8.52;2.92;;;4.00;85.10;;;;;;5015376;28;20030;-78
2021/01/15 07:00:55;;;;;;;8.77;3.72;;;4.00;85.10;;;;;;5015566;28;20029;-78
2021/01/15 07:03:36;;;;;;;11.27;3.80;;;4.00;85.10;;;;;;5015356;28;20513;-78
2021/01/15 07:06:03;;;;;;;13.13;3.70;;;4.00;85.10;;;;;;5015691;28;20022;-77
2021/01/15 07:08:31;;;;;;;8.30;3.05;;;4.00;85.10;;;;;;5015955;28;20121;-78
2021/01/15 07:10:59;;;;;;;7.10;3.28;;;4.00;85.20;;;;;;5014236;28;20471;-78
2021/01/15 07:13:28;;;;;;;10.63;4.00;;;4.00;85.20;;;;;;5015165;28;20022;-79
2021/01/15 07:15:54;;;;;;;8.15;3.25;;;4.00;85.20;;;;;;5015429;28;20022;-78
2021/01/15 07:18:33;;;;;;;13.90;4.47;;;4.00;85.20;;;;;;5013787;28;20112;-78
2021/01/15 07:21:07;;;;;;;9.00;3.67;;;4.10;85.20;;;;;;5015224;28;20136;-78
2021/01/15 07:23:53;;;;;;;8.05;3.17;;;4.00;85.20;;;;;;5013491;28;20099;-79
2021/01/15 07:26:20;;;;;;;11.68;3.63;;;4.10;85.30;;;;;;5014585;28;20089;-79
2021/01/15 07:28:47;;;;;;;7.18;2.70;;;4.00;85.30;;;;;;5014818;28;20395;-76
2021/01/15 07:31:22;;;;;;;10.23;4.25;;;4.00;85.40;;;;;;5015054;28;20100;-77
2021/01/15 07:33:58;;;;;;;10.05;3.17;;;4.00;85.40;;;;;;5015170;28;20378;-78
2021/01/15 07:36:34;;;;;;;5.78;2.90;;;4.10;85.40;;;;;;5013271;28;20026;-77
2021/01/15 07:39:10;;;;;;;7.90;3.85;;;4.10;85.40;;;;;;5014629;28;20030;-77
2021/01/15 07:41:53;;;;;;;10.18;3.60;;;4.10;85.40;;;;;;5015159;28;20128;-77
2021/01/15 07:44:22;;;;;;;9.80;2.88;;;4.10;85.40;;;;;;5014567;28;20079;-77
2021/01/15 07:46:48;;;;;;;7.93;3.63;;;4.10;85.40;;;;;;5014727;28;20044;-77
2021/01/15 07:49:14;;;;;;;11.77;3.65;;;4.10;85.40;;;;;;5013024;28;20387;-77
2021/01/15 07:51:40;;;;;;;12.82;3.40;;;4.10;85.50;;;;;;5014957;28;20062;-76
2021/01/15 07:54:06;;;;;;;7.07;3.05;;;4.00;85.40;;;;;;5013089;28;20153;-77
2021/01/15 07:56:31;;;;;;;8.15;2.97;;;4.10;85.50;;;;;;5013610;28;20030;-77
2021/01/15 07:58:57;;;;;;;9.32;3.35;;;4.10;85.50;;;;;;5013755;28;20108;-77
2021/01/15 08:01:23;;;;;;;9.40;3.15;;;4.10;85.50;;;;;;5014128;28;20053;-78
2021/01/15 08:03:57;;;;;;;11.20;3.15;;;4.10;85.50;;;;;;5014712;28;20022;-77
2021/01/15 08:06:25;;;;;;;10.32;3.45;;;4.10;85.50;;;;;;5015499;28;20057;-77
2021/01/15 08:09:17;;;;;;;7.40;3.20;;;4.10;85.50;;;;;;5015963;28;20032;-78
2021/01/15 08:11:56;;;;;;;9.57;3.53;;;4.10;85.40;;;;;;5011817;28;20038;-78
2021/01/15 08:14:23;;;;;;;10.85;4.03;;;4.10;85.50;;;;;;5012757;28;20034;-78
2021/01/15 08:16:50;;;;;;;9.20;3.75;;;4.10;85.50;;;;;;5012985;28;20028;-78
2021/01/15 08:19:22;;;;;;;11.05;3.67;;;4.10;85.50;;;;;;5014082;28;20467;-78
2021/01/15 08:21:50;;;;;;;11.02;3.58;;;4.20;85.50;;;;;;5012711;28;20029;-77
2021/01/15 08:24:18;;;;;;;11.57;3.80;;;4.10;85.40;;;;;;5013734;28;20029;-77
2021/01/15 08:26:56;;;;;;;12.05;3.38;;;4.20;85.50;;;;;;5014115;28;20109;-78
2021/01/15 08:29:24;;;;;;;11.15;3.20;;;4.20;85.40;;;;;;5013633;28;20392;-78
2021/01/15 08:31:56;;;;;;;10.85;3.47;;;4.20;86.00;;;;;;5012723;28;20030;-78
2021/01/15 08:34:23;;;;;;;10.80;3.30;;;4.20;85.50;;;;;;5013231;28;20109;-77
2021/01/15 08:36:55;;;;;;;7.45;3.20;;;4.20;85.40;;;;;;5011629;28;20022;-78
2021/01/15 08:39:20;;;;;;;6.53;3.13;;;4.20;85.40;;;;;;5012222;28;20112;-78
2021/01/15 08:41:56;;;;;;;10.90;3.50;;;4.20;85.40;;;;;;5012799;28;20117;-78
2021/01/15 08:44:23;;;;;;;9.50;3.17;;;4.30;85.40;;;;;;5013785;28;20030;-77
2021/01/15 08:46:50;;;;;;;9.20;3.58;;;4.30;85.40;;;;;;5012375;28;20400;-78
2021/01/15 08:49:16;;;;;;;8.85;3.45;;;4.30;85.30;;;;;;5013396;28;20065;-77
2021/01/15 08:51:49;;;;;;;10.88;3.67;;;4.30;85.40;;;;;;5013630;28;20052;-76
2021/01/15 08:54:16;;;;;;;7.43;2.65;;;4.30;85.30;;;;;;5013132;28;20022;-76
2021/01/15 08:56:41;;;;;;;8.40;3.30;;;4.30;85.30;;;;;;5013901;28;20022;-77
2021/01/15 08:59:09;;;;;;;12.80;3.28;;;4.30;85.40;;;;;;5012165;28;20095;-78
2021/01/15 09:01:38;;;;;;;10.75;4.05;;;4.30;85.50;;;;;;5011751;28;20029;-78
2021/01/15 09:04:11;;;;;;;12.27;3.58;;;4.30;85.50;;;;;;5011918;28;20022;-77
2021/01/15 09:06:39;;;;;;;12.30;3.42;;;4.30;85.40;;;;;;5012133;28;20022;-78
2021/01/15 09:09:07;;;;;;;10.02;3.72;;;4.30;85.50;;;;;;5011905;28;20374;-77
2021/01/15 09:11:36;;;;;;;7.13;3.00;;;4.30;85.40;;;;;;5012953;28;20022;-77
2021/01/15 09:14:06;;;;;;;7.28;3.13;;;4.40;85.40;;;;;;5012042;28;20114;-77
2021/01/15 09:16:33;;;;;;;6.95;2.50;;;4.40;85.40;;;;;;5011926;28;20028;-76
2021/01/15 09:19:19;;;;;;;7.53;3.03;;;4.30;85.40;;;;;;5012148;28;20111;-77
2021/01/15 09:21:56;;;;;;;5.70;2.83;;;4.30;85.40;;;;;;5011465;28;20148;-77
2021/01/15 09:24:22;;;;;;;7.20;3.08;;;4.30;85.50;;;;;;5011568;28;20073;-77
2021/01/15 09:26:55;;;;;;;8.07;3.17;;;4.30;85.60;;;;;;5013452;28;20041;-77
2021/01/15 09:29:21;;;;;;;7.25;2.75;;;4.30;85.50;;;;;;5012885;28;20469;-78
2021/01/15 09:31:46;;;;;;;8.68;2.85;;;4.30;85.50;;;;;;5013129;28;20026;-78
2021/01/15 09:34:15;;;;;;;9.63;3.28;;;4.30;85.40;;;;;;5013236;28;20502;-77
2021/01/15 09:36:42;;;;;;;7.00;2.65;;;4.30;85.50;;;;;;5013529;28;20076;-77
2021/01/15 09:39:09;;;;;;;6.20;2.15;;;4.30;85.50;;;;;;5011519;28;20034;-77
2021/01/15 09:41:41;;;;;;;6.43;2.78;;;4.30;85.50;;;;;;5012962;28;20025;-77
2021/01/15 09:44:06;;;;;;;6.65;2.40;;;4.30;85.50;;;;;;5012764;28;20026;-78
2021/01/15 09:46:32;;;;;;;6.07;2.67;;;4.30;85.40;;;;;;5012952;28;20382;-77
2021/01/15 09:48:58;;;;;;;9.77;3.50;;;4.30;85.40;;;;;;5012816;28;20482;-78
2021/01/15 09:51:28;;;;;;;6.18;3.00;;;4.30;85.40;;;;;;5013026;28;20022;-78
2021/01/15 09:53:55;;;;;;;12.23;3.50;;;4.30;85.40;;;;;;5013273;28;20060;-78
2021/01/15 09:56:22;;;;;;;12.18;3.90;;;4.30;85.40;;;;;;5012629;28;20092;-78
2021/01/15 09:58:48;;;;;;;6.70;3.25;;;4.30;85.40;;;;;;5013250;28;20022;-78
2021/01/15 10:01:14;;;;;;;6.75;2.70;;;4.30;85.40;;;;;;5012432;28;20340;-78
2021/01/15 10:03:39;;;;;;;10.75;2.88;;;4.30;85.40;;;;;;5011646;28;20464;-78
2021/01/15 10:06:05;;;;;;;9.68;3.08;;;4.30;85.40;;;;;;5013297;28;20097;-78
2021/01/15 10:08:31;;;;;;;8.68;3.08;;;4.40;85.40;;;;;;5012649;28;20415;-78
2021/01/15 10:10:56;;;;;;;7.63;2.65;;;4.40;85.20;;;;;;5012007;28;20431;-78
2021/01/15 10:13:22;;;;;;;7.20;3.33;;;4.40;85.30;;;;;;5013486;28;20093;-78
2021/01/15 10:15:48;;;;;;;7.97;2.50;;;4.40;85.20;;;;;;5015208;28;20052;-77
2021/01/15 10:18:13;;;;;;;10.20;2.92;;;4.40;85.00;;;;;;5018460;28;20544;-78
2021/01/15 10:20:46;;;;;;;7.65;3.10;;;4.40;85.00;;;;;;5022598;28;20522;-79
2021/01/15 10:23:11;;;;;;;9.57;3.90;;;4.40;85.00;;;;;;5014113;28;20050;-78
2021/01/15 10:25:37;;;;;;;5.20;2.35;;;4.40;84.90;;;;;;5012553;28;20245;-78
2021/01/15 10:28:03;;;;;;;8.77;2.88;;;4.50;84.90;;;;;;5012153;28;20486;-79
2021/01/15 10:30:30;;;;;;;8.00;3.22;;;4.50;84.80;;;;;;5011860;28;20024;-78
2021/01/15 10:32:56;;;;;;;8.80;2.83;;;4.50;84.60;;;;;;5011156;28;20037;-77
2021/01/15 10:35:22;;;;;;;7.18;3.22;;;4.60;84.70;;;;;;5010900;28;20030;-78
2021/01/15 10:37:47;;;;;;;6.28;2.47;;;4.50;84.60;;;;;;5011085;28;20022;-78
2021/01/15 10:40:13;;;;;;;6.45;2.83;;;4.60;84.60;;;;;;5012141;28;20062;-78
2021/01/15 10:42:39;;;;;;;6.00;2.40;;;4.60;84.70;;;;;;5012142;28;20064;-77
2021/01/15 10:45:06;;;;;;;5.40;2.30;;;4.60;84.60;;;;;;5013081;28;20423;-79
2021/01/15 10:47:31;;;;;;;7.10;3.38;;;4.50;84.50;;;;;;5010860;28;20030;-79
2021/01/15 10:49:57;;;;;;;5.13;2.67;;;4.50;84.50;;;;;;5012122;28;20352;-79
2021/01/15 10:52:23;;;;;;;8.15;3.22;;;4.50;84.50;;;;;;5011157;28;20132;-77
2021/01/15 10:54:48;;;;;;;8.23;3.33;;;4.50;84.50;;;;;;5011522;28;20030;-78
2021/01/15 10:57:14;;;;;;;6.88;2.65;;;4.50;84.50;;;;;;5012845;28;20029;-76
2021/01/15 10:59:40;;;;;;;8.10;3.10;;;4.50;84.40;;;;;;5011536;28;20037;-78
2021/01/15 11:02:05;;;;;;;8.95;3.33;;;4.50;84.30;;;;;;5016805;28;20475;-77
2021/01/15 11:04:31;;;;;;;5.88;2.50;;;4.50;84.30;;;;;;5017063;28;20029;-77
2021/01/15 11:06:56;;;;;;;7.15;3.22;;;4.50;84.20;;;;;;5015551;28;20029;-78
2021/01/15 11:09:24;;;;;;;9.05;2.63;;;4.50;84.10;;;;;;5015866;28;20033;-80
2021/01/15 11:11:51;;;;;;;7.47;2.55;;;4.60;84.10;;;;;;5016543;28;20522;-78
2021/01/15 11:14:17;;;;;;;6.25;2.60;;;4.50;84.00;;;;;;5016071;28;20533;-79
2021/01/15 11:16:43;;;;;;;6.13;2.42;;;4.50;84.00;;;;;;5014609;28;20104;-78
2021/01/15 11:19:09;;;;;;;9.32;2.60;;;4.50;84.00;;;;;;5015930;28;20049;-78
2021/01/15 11:21:35;;;;;;;10.18;3.08;;;4.60;84.00;;;;;;5016296;28;20034;-79
2021/01/15 11:24:00;;;;;;;6.90;2.83;;;4.60;83.90;;;;;;5015756;28;20057;-78
2021/01/15 11:26:28;;;;;;;7.90;3.83;;;4.60;83.80;;;;;;5014074;28;20053;-79
2021/01/15 11:28:55;;;;;;;8.55;3.20;;;4.60;83.80;;;;;;5015483;28;20026;-78
2021/01/15 11:31:22;;;;;;;5.22;2.60;;;4.50;83.70;;;;;;5015302;28;20026;-78
2021/01/15 11:33:49;;;;;;;7.82;2.40;;;4.50;84.40;;;;;;5015375;28;20026;-78
2021/01/15 11:36:15;;;;;;;7.75;2.75;;;4.50;83.80;;;;;;5014635;28;20030;-78
2021/01/15 11:38:41;;;;;;;6.63;2.63;;;4.50;83.70;;;;;;5014332;28;20028;-78
2021/01/15 11:41:07;;;;;;;9.48;3.63;;;4.50;83.60;;;;;;5015454;28;20041;-77
2021/01/15 11:43:34;;;;;;;7.90;2.95;;;4.50;83.50;;;;;;5013844;28;20022;-77
2021/01/15 11:46:01;;;;;;;5.50;2.28;;;4.50;83.50;;;;;;5015599;28;20026;-77
2021/01/15 11:48:28;;;;;;;8.95;2.28;;;4.40;83.40;;;;;;5014326;28;20018;-78
2021/01/15 11:50:55;;;;;;;7.75;3.20;;;4.40;83.50;;;;;;5015653;28;20113;-77
2021/01/15 11:53:21;;;;;;;10.65;3.03;;;4.40;83.50;;;;;;5014559;28;20041;-78
2021/01/15 11:55:54;;;;;;;13.32;3.97;;;4.50;83.40;;;;;;5015903;28;20475;-78
2021/01/15 11:58:23;;;;;;;6.47;2.75;;;4.50;83.30;;;;;;5016527;28;20478;-78
2021/01/15 12:00:49;;;;;;;6.15;2.60;;;4.40;83.30;;;;;;5016313;28;20033;-78
2021/01/15 12:03:14;;;;;;;8.75;3.42;;;4.40;83.30;;;;;;5014557;28;20033;-78
2021/01/15 12:05:49;;;;;;;7.63;2.90;;;4.40;83.40;;;;;;5015101;28;20461;-77
2021/01/15 12:08:14;;;;;;;8.57;3.17;;;4.40;83.20;;;;;;5015262;28;20034;-79
2021/01/15 12:10:40;;;;;;;7.47;2.67;;;4.40;83.20;;;;;;5017210;28;20395;-77
2021/01/15 12:13:06;;;;;;;7.13;3.25;;;4.40;83.20;;;;;;5014980;28;20030;-77
2021/01/15 12:15:31;;;;;;;9.15;2.85;;;4.40;83.30;;;;;;5013621;28;20026;-77
2021/01/15 12:17:57;;;;;;;7.43;3.20;;;4.50;83.20;;;;;;5013586;28;20025;-77
2021/01/15 12:20:23;;;;;;;9.27;3.33;;;4.40;83.10;;;;;;5015425;28;20431;-78
2021/01/15 12:22:48;;;;;;;9.68;3.15;;;4.50;83.10;;;;;;5015146;28;20068;-78
2021/01/15 12:25:14;;;;;;;10.23;3.65;;;4.50;83.00;;;;;;5014730;28;20018;-77
2021/01/15 12:27:40;;;;;;;7.22;3.17;;;4.50;82.90;;;;;;5013655;28;20028;-77
2021/01/15 12:30:07;;;;;;;8.10;2.97;;;4.60;82.90;;;;;;5013458;28;20025;-78
2021/01/15 12:32:33;;;;;;;7.20;2.72;;;4.60;82.90;;;;;;5013473;28;20528;-78
2021/01/15 12:34:59;;;;;;;6.55;3.42;;;4.60;82.90;;;;;;5014115;28;20113;-77
2021/01/15 12:37:28;;;;;;;8.60;3.50;;;4.60;82.70;;;;;;5013627;28;20028;-77
2021/01/15 12:39:55;;;;;;;9.00;3.42;;;4.50;82.90;;;;;;5014612;28;20084;-76
2021/01/15 12:42:21;;;;;;;7.93;3.08;;;4.50;82.90;;;;;;5013655;28;20026;-79
2021/01/15 12:44:47;;;;;;;8.43;3.42;;;4.50;82.90;;;;;;5013609;28;20026;-78
2021/01/15 12:47:13;;;;;;;7.50;2.60;;;4.50;82.90;;;;;;5013592;28;20109;-78
2021/01/15 12:49:39;;;;;;;8.52;3.38;;;4.40;82.90;;;;;;5012873;28;20128;-77
2021/01/15 12:52:05;;;;;;;7.75;3.25;;;4.50;82.90;;;;;;5014970;28;20423;-78
2021/01/15 12:54:30;;;;;;;10.25;4.07;;;4.50;82.90;;;;;;5015885;28;20065;-78
2021/01/15 12:56:56;;;;;;;7.53;3.47;;;4.50;82.90;;;;;;5015041;28;20075;-78
2021/01/15 12:59:22;;;;;;;8.30;3.58;;;4.50;82.90;;;;;;5013749;28;20498;-77
2021/01/15 13:01:47;;;;;;;7.63;3.35;;;4.40;82.80;;;;;;5014055;28;20030;-77
2021/01/15 13:04:13;;;;;;;7.57;3.55;;;4.50;83.00;;;;;;5014773;28;20053;-78
2021/01/15 13:06:40;;;;;;;10.55;3.70;;;4.40;82.90;;;;;;5013084;28;20067;-78